Klemme/'s Corner

Nearby METAR Reports

 

KI67 - Harrison, Ohio, USA
Distance from station: ESE 14mi, 23km
Updated: Mon, 05-Dec-2022 12:15am EST
Clear
Clear
 Wind from calm
Wind: Calm
Temperature: 21°F , -6°C
Dew Point: 19°F , -7°C
Humidity: 93%
Barometer: 30.14 inHg , 1020.7 hPa
Clouds: Clear
Visibility: 10 miles , 16 km
2022/12/05 05:15 KI67 050515Z AUTO 00000KT 10SM CLR M06/M07 A3014 RMK AO1
KHAO - Hamilton, Ohio, USA
Distance from station: E 26mi, 42km
Updated: Sun, 04-Dec-2022 11:53pm EST
Clear
Clear
 Wind from calm
Wind: Calm
Temperature: 19°F , -7°C
Dew Point: 14°F , -10°C
Humidity: 79%
Barometer: 30.14 inHg , 1020.7 hPa
Clouds: Clear
Visibility: 10 miles , 16 km
2022/12/05 04:53 KHAO 050453Z AUTO 00000KT 10SM CLR M07/M10 A3014 RMK AO2 SLP215 T10721100 400561078
 
KCVG - Covington, Kentucky, USA
Distance from station: SE 28mi, 45km
Updated: Sun, 04-Dec-2022 11:52pm EST
Clear
Clear
 Wind from S
Wind: S 5 mph , 7 km/h
Temperature: 28°F , -2°C
Wind Chill: 22°F , -6°C
Dew Point: 16°F , -9°C
Humidity: 59%
Barometer: 30.12 inHg , 1020 hPa
Clouds: Clear
Visibility: 10 miles , 16 km
2022/12/05 04:52 KCVG 050452Z 19004KT 10SM CLR M02/M09 A3012 RMK AO2 SLP207 T10171089 400501067
KRID - Richmond, Indiana, USA
Distance from station: NNE 29mi, 46km
Updated: Mon, 05-Dec-2022 12:15am EST
Clear
Clear
 Wind from SSW
Wind: SSW 10 mph , 17 km/h
Temperature: 27°F , -3°C
Wind Chill: 18°F , -8°C
Dew Point: 19°F , -7°C
Humidity: 74%
Barometer: 30.11 inHg , 1019.6 hPa
Clouds: Clear
Visibility: 10 miles , 16 km
2022/12/05 05:15 KRID 050515Z AUTO 21009KT 10SM CLR M03/M07 A3011 RMK AO2
 
KMWO - Middletown/Hook, Ohio, USA
Distance from station: ENE 35mi, 56km
Updated: Mon, 05-Dec-2022 12:15am EST
Clear
Clear
 Wind from calm
Wind: Calm
Temperature: 21°F , -6°C
Dew Point: 18°F , -8°C
Humidity: 86%
Barometer: 30.15 inHg , 1021 hPa
Clouds: Clear
Visibility: 10 miles , 16 km
2022/12/05 05:15 KMWO 050515Z AUTO 00000KT 10SM CLR M06/M08 A3015 RMK AO2 T10641077
KLUK - Cincinnat/Lunken, Ohio, USA
Distance from station: ESE 36mi, 58km
Updated: Sun, 04-Dec-2022 11:53pm EST
Clear
Clear
 Wind from calm
Wind: Calm
Temperature: 23°F , -5°C
Dew Point: 19°F , -7°C
Humidity: 86%
Barometer: 30.17 inHg , 1021.7 hPa
Clouds: Clear
Visibility: 8 miles , 13 km
2022/12/05 04:53 KLUK 050453Z AUTO 00000KT 8SM CLR M05/M07 A3017 RMK AO2 SLP221 T10501067 400671067
 
KMGY - Dayton, Ohio, USA
Distance from station: ENE 45mi, 72km
Updated: Sun, 04-Dec-2022 11:53pm EST
Clear
Clear
 Wind from S
Wind: S 8 mph , 13 km/h
Temperature: 27°F , -3°C
Wind Chill: 19°F , -7°C
Dew Point: 12°F , -11°C
Humidity: 54%
Barometer: 30.10 inHg , 1019.3 hPa
Clouds: Clear
Visibility: 10 miles , 16 km
2022/12/05 04:53 KMGY 050453Z AUTO 19007KT 10SM CLR M03/M11 A3010 RMK AO2 SLP204 T10281111
KGEZ - Shelbyville, Indiana, USA
Distance from station: WNW 45mi, 73km
Updated: Sun, 04-Dec-2022 11:53pm EST
Clear
Clear
 Wind from S
Wind: S 8 mph , 13 km/h
Temperature: 30°F , -1°C
Wind Chill: 22°F , -6°C
Dew Point: 18°F , -8°C
Humidity: 59%
Barometer: 30.10 inHg , 1019.3 hPa
Clouds: Clear
Visibility: 10 miles , 16 km
2022/12/05 04:53 KGEZ 050453Z AUTO 18007KT 10SM CLR M01/M08 A3010 RMK AO2 SLP201 T10111083 400611083
 
KI69 - Batavia, Ohio, USA
Distance from station: ESE 46mi, 74km
Updated: Mon, 05-Dec-2022 12:15am EST
Clear
Clear
 Wind from S
Wind: S 3 mph , 6 km/h
Temperature: 30°F , -1°C
Dew Point: 16°F , -9°C
Humidity: 55%
Barometer: 30.14 inHg , 1020.7 hPa
Clouds: Clear
Visibility: 10 miles , 16 km
2022/12/05 05:15 KI69 050515Z AUTO 19003KT 10SM CLR M01/M09 A3014 RMK AO2 T10091090
KIMS - Madison, Indiana, USA
Distance from station: SSW 48mi, 76km
Updated: Mon, 05-Dec-2022 12:15am EST
Clear
Clear
 Wind from calm
Wind: Calm
Temperature: 28°F , -2°C
Dew Point: 25°F , -4°C
Humidity: 86%
Barometer: 30.15 inHg , 1021 hPa
Clouds: Clear
Visibility: 10 miles , 16 km
2022/12/05 05:15 KIMS 050515Z AUTO 00000KT 10SM CLR M02/M04 A3015 RMK AO2
 
KBAK - Columbus/Balkala, Indiana, USA
Distance from station: W 48mi, 78km
Updated: Sun, 04-Dec-2022 9:50pm EST
NOT Current
Clear
Clear
 Wind from calm
Wind: Calm
Temperature: 28°F , -2°C
Dew Point: 16°F , -9°C
Humidity: 59%
Barometer: 30.15 inHg , 1021 hPa
Clouds: Clear
Visibility: 10 miles , 16 km
2022/12/05 02:50 KBAK 050250Z 00000KT 10SM CLR M02/M09 A3015 RMK LAST